Impacts TAF Board
For situational awareness. Not to be used for flight planning purposes.
IDs:

KGBD - Great Bend Muni, KS, US

Issued at 1120 UTC 20 Jul 2019
Updated at 1426 UTC 20 Jul 2019
Potential Impact None Slight Moderate High
Time1356Z 20/15Z 20/16Z 20/17Z 20/18Z 20/19Z 20/20Z 20/21Z 20/22Z 20/23Z 21/00Z 21/01Z 21/02Z 21/03Z>>
Type OBS PRVL PRVL PRVL PRVL PRVL PRVL PRVL PRVL PRVL PRVL PRVL PRVL PRVL
VIS 10 >6 >6 >6 >6 >6 >6 >6 >6 >6 >6 >6 >6 >6
CIG -- -- -- -- -- -- -- -- -- -- -- -- -- --
Cover CLR FEW FEW FEW FEW FEW FEW FEW FEW FEW FEW FEW SCT SCT
FltCat VFR VFR VFR VFR VFR VFR VFR VFR VFR VFR VFR VFR VFR VFR
WX -- -- -- -- -- -- -- -- -- -- -- -- -- --
WDir 180 180 180 180 180 180 180 180 180 180 180 180 170 170
WSpd 15 15 15 15 15 20 20 20 20 20 20 20 12 12
WGst -- 22 22 22 22 28 28 28 28 28 28 28 -- --
Raw TAF
KGBD 201120Z 2012/2112 18012KT P6SM FEW250
  FM201500 18015G22KT P6SM FEW250
  FM201900 18020G28KT P6SM FEW250
  FM210200 17012KT P6SM SCT250
  FM210500 24010KT P6SM BKN250
  FM210900 36008KT P6SM BKN250


Raw METAR
KGBD 201356Z AUTO 18015KT 10SM CLR 28/19 A2978 RMK AO2 SLP060 T02830189
KGBD 201256Z AUTO 17013KT 10SM CLR 26/19 A2978 RMK AO2 SLP061 T02560194
KGBD 201156Z AUTO 17013KT 10SM CLR 24/19 A2978 RMK AO2 SLP060 T02390189 10278 20239 53000

METAR Board
For situational awareness. Not to be used for flight planning purposes.